sensor_id;sensor_type;location;lat;lon;timestamp;pressure;altitude;pressure_sealevel;temperature;humidity
7170;BME280;3626;42.656;23.312;2023-01-10T00:00:06;93791.78;;;2.40;100.00
7170;BME280;3626;42.656;23.312;2023-01-10T00:00:14;93789.94;;;2.42;100.00
7170;BME280;3626;42.656;23.312;2023-01-10T00:00:20;93784.84;;;2.42;100.00
7170;BME280;3626;42.656;23.312;2023-01-10T00:00:28;93793.13;;;2.44;100.00
7170;BME280;3626;42.656;23.312;2023-01-10T00:00:38;93792.19;;;2.45;100.00
7170;BME280;3626;42.656;23.312;2023-01-10T00:00:44;93794.72;;;2.45;100.00
7170;BME280;3626;42.656;23.312;2023-01-10T00:00:50;93790.56;;;2.44;100.00
7170;BME280;3626;42.656;23.312;2023-01-10T00:00:56;93786.28;;;2.45;100.00
7170;BME280;3626;42.656;23.312;2023-01-10T00:01:05;93785.63;;;2.43;100.00
7170;BME280;3626;42.656;23.312;2023-01-10T00:01:11;93787.38;;;2.42;100.00
7170;BME280;3626;42.656;23.312;2023-01-10T00:01:18;93786.53;;;2.42;100.00
7170;BME280;3626;42.656;23.312;2023-01-10T00:01:24;93787.50;;;2.41;100.00
7170;BME280;3626;42.656;23.312;2023-01-10T00:01:31;93788.44;;;2.40;100.00
7170;BME280;3626;42.656;23.312;2023-01-10T00:01:37;93793.69;;;2.38;100.00
7170;BME280;3626;42.656;23.312;2023-01-10T00:01:42;93788.28;;;2.41;100.00
7170;BME280;3626;42.656;23.312;2023-01-10T00:01:48;93796.72;;;2.42;100.00
7170;BME280;3626;42.656;23.312;2023-01-10T00:01:56;93793.38;;;2.41;100.00
7170;BME280;3626;42.656;23.312;2023-01-10T00:02:02;93788.44;;;2.40;100.00
7170;BME280;3626;42.656;23.312;2023-01-10T00:02:08;93793.81;;;2.37;100.00
7170;BME280;3626;42.656;23.312;2023-01-10T00:02:14;93793.00;;;2.36;100.00
7170;BME280;3626;42.656;23.312;2023-01-10T00:02:20;93793.81;;;2.37;100.00
7170;BME280;3626;42.656;23.312;2023-01-10T00:02:26;93797.16;;;2.37;100.00
7170;BME280;3626;42.656;23.312;2023-01-10T00:02:32;93795.41;;;2.38;100.00
7170;BME280;3626;42.656;23.312;2023-01-10T00:02:37;93798.88;;;2.37;100.00
7170;BME280;3626;42.656;23.312;2023-01-10T00:02:43;93796.63;;;2.34;100.00
7170;BME280;3626;42.656;23.312;2023-01-10T00:02:50;93799.31;;;2.32;100.00
7170;BME280;3626;42.656;23.312;2023-01-10T00:02:56;93795.16;;;2.31;100.00
7170;BME280;3626;42.656;23.312;2023-01-10T00:03:03;93792.63;;;2.31;100.00
7170;BME280;3626;42.656;23.312;2023-01-10T00:03:10;93797.72;;;2.31;100.00
7170;BME280;3626;42.656;23.312;2023-01-10T00:03:17;93796.09;;;2.30;100.00
7170;BME280;3626;42.656;23.312;2023-01-10T00:03:22;93786.72;;;2.31;100.00
7170;BME280;3626;42.656;23.312;2023-01-10T00:03:28;93794.34;;;2.31;100.00
7170;BME280;3626;42.656;23.312;2023-01-10T00:03:34;93790.06;;;2.31;100.00
7170;BME280;3626;42.656;23.312;2023-01-10T00:03:40;93790.06;;;2.31;100.00
7170;BME280;3626;42.656;23.312;2023-01-10T00:03:45;93784.03;;;2.32;100.00
7170;BME280;3626;42.656;23.312;2023-01-10T00:03:51;93784.81;;;2.33;100.00
7170;BME280;3626;42.656;23.312;2023-01-10T00:03:57;93778.81;;;2.34;100.00
7170;BME280;3626;42.656;23.312;2023-01-10T00:04:03;93787.38;;;2.33;100.00
7170;BME280;3626;42.656;23.312;2023-01-10T00:04:09;93778.00;;;2.33;100.00
7170;BME280;3626;42.656;23.312;2023-01-10T00:04:14;93777.19;;;2.33;100.00
7170;BME280;3626;42.656;23.312;2023-01-10T00:04:20;93774.78;;;2.31;100.00
7170;BME280;3626;42.656;23.312;2023-01-10T00:04:26;93772.41;;;2.30;100.00
7170;BME280;3626;42.656;23.312;2023-01-10T00:04:33;93777.59;;;2.28;100.00
7170;BME280;3626;42.656;23.312;2023-01-10T00:04:39;93778.56;;;2.27;100.00
7170;BME280;3626;42.656;23.312;2023-01-10T00:04:45;93779.50;;;2.26;100.00
7170;BME280;3626;42.656;23.312;2023-01-10T00:04:51;93782.84;;;2.27;100.00
7170;BME280;3626;42.656;23.312;2023-01-10T00:04:57;93779.50;;;2.26;100.00
7170;BME280;3626;42.656;23.312;2023-01-10T00:05:03;93782.84;;;2.27;100.00
7170;BME280;3626;42.656;23.312;2023-01-10T00:05:09;93789.78;;;2.24;100.00
7170;BME280;3626;42.656;23.312;2023-01-10T00:05:15;93790.59;;;2.25;100.00
7170;BME280;3626;42.656;23.312;2023-01-10T00:05:21;93788.72;;;2.27;100.00
7170;BME280;3626;42.656;23.312;2023-01-10T00:05:27;93792.06;;;2.28;100.00
7170;BME280;3626;42.656;23.312;2023-01-10T00:05:33;93787.13;;;2.26;100.00
7170;BME280;3626;42.656;23.312;2023-01-10T00:05:39;93792.06;;;2.28;100.00
7170;BME280;3626;42.656;23.312;2023-01-10T00:05:45;93789.53;;;2.28;100.00
7170;BME280;3626;42.656;23.312;2023-01-10T00:05:51;93795.44;;;2.28;100.00
7170;BME280;3626;42.656;23.312;2023-01-10T00:05:58;93799.56;;;2.29;100.00
7170;BME280;3626;42.656;23.312;2023-01-10T00:06:04;93793.03;;;2.27;100.00
7170;BME280;3626;42.656;23.312;2023-01-10T00:06:10;93794.78;;;2.26;100.00
7170;BME280;3626;42.656;23.312;2023-01-10T00:06:15;93803.22;;;2.27;100.00
7170;BME280;3626;42.656;23.312;2023-01-10T00:06:21;93803.22;;;2.27;100.00
7170;BME280;3626;42.656;23.312;2023-01-10T00:06:27;93805.59;;;2.28;100.00
7170;BME280;3626;42.656;23.312;2023-01-10T00:06:33;93804.66;;;2.29;100.00
7170;BME280;3626;42.656;23.312;2023-01-10T00:06:39;93797.84;;;2.30;100.00
7170;BME280;3626;42.656;23.312;2023-01-10T00:06:44;93798.66;;;2.30;100.00
7170;BME280;3626;42.656;23.312;2023-01-10T00:06:50;93803.75;;;2.30;100.00
7170;BME280;3626;42.656;23.312;2023-01-10T00:06:56;93802.78;;;2.31;100.00
7170;BME280;3626;42.656;23.312;2023-01-10T00:07:03;93803.59;;;2.32;100.00
7170;BME280;3626;42.656;23.312;2023-01-10T00:07:09;93806.00;;;2.33;100.00
7170;BME280;3626;42.656;23.312;2023-01-10T00:07:16;93799.19;;;2.34;100.00
7170;BME280;3626;42.656;23.312;2023-01-10T00:07:21;93805.88;;;2.35;100.00
7170;BME280;3626;42.656;23.312;2023-01-10T00:07:27;93802.38;;;2.36;100.00
7170;BME280;3626;42.656;23.312;2023-01-10T00:07:33;93798.88;;;2.37;100.00
7170;BME280;3626;42.656;23.312;2023-01-10T00:07:38;93800.50;;;2.38;100.00
7170;BME280;3626;42.656;23.312;2023-01-10T00:07:45;93797.03;;;2.39;100.00
7170;BME280;3626;42.656;23.312;2023-01-10T00:07:50;93803.72;;;2.40;100.00
7170;BME280;3626;42.656;23.312;2023-01-10T00:07:56;93800.22;;;2.41;100.00
7170;BME280;3626;42.656;23.312;2023-01-10T00:08:04;93798.47;;;2.41;100.00
7170;BME280;3626;42.656;23.312;2023-01-10T00:08:14;93795.00;;;2.42;100.00
7170;BME280;3626;42.656;23.312;2023-01-10T00:08:20;93798.38;;;2.43;100.00
7170;BME280;3626;42.656;23.312;2023-01-10T00:08:26;93788.19;;;2.43;100.00
7170;BME280;3626;42.656;23.312;2023-01-10T00:08:32;93788.97;;;2.43;100.00
7170;BME280;3626;42.656;23.312;2023-01-10T00:08:39;93799.97;;;2.44;100.00
7170;BME280;3626;42.656;23.312;2023-01-10T00:08:44;93790.72;;;2.43;100.00
7170;BME280;3626;42.656;23.312;2023-01-10T00:08:50;93792.31;;;2.44;100.00
7170;BME280;3626;42.656;23.312;2023-01-10T00:08:56;93782.28;;;2.42;100.00
7170;BME280;3626;42.656;23.312;2023-01-10T00:09:02;93789.09;;;2.42;100.00
7170;BME280;3626;42.656;23.312;2023-01-10T00:09:08;93795.00;;;2.42;100.00
7170;BME280;3626;42.656;23.312;2023-01-10T00:09:14;93790.84;;;2.41;100.00
7170;BME280;3626;42.656;23.312;2023-01-10T00:09:20;93792.59;;;2.41;100.00
7170;BME280;3626;42.656;23.312;2023-01-10T00:09:26;93799.56;;;2.39;100.00
7170;BME280;3626;42.656;23.312;2023-01-10T00:09:31;93788.59;;;2.38;100.00
7170;BME280;3626;42.656;23.312;2023-01-10T00:09:37;93791.41;;;2.35;100.00
7170;BME280;3626;42.656;23.312;2023-01-10T00:09:43;93794.91;;;2.34;100.00
7170;BME280;3626;42.656;23.312;2023-01-10T00:09:49;93792.47;;;2.33;100.00
7170;BME280;3626;42.656;23.312;2023-01-10T00:09:55;93798.34;;;2.33;100.00
7170;BME280;3626;42.656;23.312;2023-01-10T00:10:01;93801.72;;;2.34;100.00
7170;BME280;3626;42.656;23.312;2023-01-10T00:10:08;93800.09;;;2.33;100.00
7170;BME280;3626;42.656;23.312;2023-01-10T00:10:14;93806.16;;;2.32;100.00
7170;BME280;3626;42.656;23.312;2023-01-10T00:10:20;93812.97;;;2.31;100.00
7170;BME280;3626;42.656;23.312;2023-01-10T00:10:25;93812.97;;;2.31;100.00
7170;BME280;3626;42.656;23.312;2023-01-10T00:10:32;93821.56;;;2.30;100.00
7170;BME280;3626;42.656;23.312;2023-01-10T00:10:38;93820.88;;;2.28;100.00
7170;BME280;3626;42.656;23.312;2023-01-10T00:10:44;93816.72;;;2.27;100.00
7170;BME280;3626;42.656;23.312;2023-01-10T00:10:49;93824.38;;;2.27;100.00
7170;BME280;3626;42.656;23.312;2023-01-10T00:10:56;93825.19;;;2.28;100.00
7170;BME280;3626;42.656;23.312;2023-01-10T00:11:02;93825.97;;;2.28;100.00
7170;BME280;3626;42.656;23.312;2023-01-10T00:11:28;93827.31;;;2.32;100.00
7170;BME280;3626;42.656;23.312;2023-01-10T00:11:52;93821.00;;;2.36;100.00
7170;BME280;3626;42.656;23.312;2023-01-10T00:12:16;93817.25;;;2.40;100.00
7170;BME280;3626;42.656;23.312;2023-01-10T00:12:41;93814.47;;;2.34;100.00
7170;BME280;3626;42.656;23.312;2023-01-10T00:13:05;93812.03;;;2.32;100.00
7170;BME280;3626;42.656;23.312;2023-01-10T00:13:31;93806.00;;;2.33;100.00
7170;BME280;3626;42.656;23.312;2023-01-10T00:13:38;93811.25;;;2.32;100.00
7170;BME280;3626;42.656;23.312;2023-01-10T00:13:44;93793.41;;;2.32;100.00
7170;BME280;3626;42.656;23.312;2023-01-10T00:13:52;93800.91;;;2.33;100.00
7170;BME280;3626;42.656;23.312;2023-01-10T00:13:57;93798.34;;;2.33;100.00
7170;BME280;3626;42.656;23.312;2023-01-10T00:14:03;93804.13;;;2.35;100.00
7170;BME280;3626;42.656;23.312;2023-01-10T00:14:09;93799.03;;;2.35;100.00
7170;BME280;3626;42.656;23.312;2023-01-10T00:14:16;93798.09;;;2.36;100.00
7170;BME280;3626;42.656;23.312;2023-01-10T00:14:22;93794.59;;;2.37;100.00
7170;BME280;3626;42.656;23.312;2023-01-10T00:14:28;93797.03;;;2.39;100.00
7170;BME280;3626;42.656;23.312;2023-01-10T00:14:34;93797.69;;;2.41;100.00
7170;BME280;3626;42.656;23.312;2023-01-10T00:14:39;93795.13;;;2.41;100.00
7170;BME280;3626;42.656;23.312;2023-01-10T00:14:45;93792.47;;;2.42;100.00
7170;BME280;3626;42.656;23.312;2023-01-10T00:14:51;93788.19;;;2.43;100.00
7170;BME280;3626;42.656;23.312;2023-01-10T00:14:58;93786.44;;;2.43;100.00
7170;BME280;3626;42.656;23.312;2023-01-10T00:15:04;93796.63;;;2.43;100.00
7170;BME280;3626;42.656;23.312;2023-01-10T00:15:10;93788.19;;;2.43;100.00
7170;BME280;3626;42.656;23.312;2023-01-10T00:15:16;93788.81;;;2.45;100.00
7170;BME280;3626;42.656;23.312;2023-01-10T00:15:22;93787.09;;;2.45;100.00
7170;BME280;3626;42.656;23.312;2023-01-10T00:15:30;93785.34;;;2.46;100.00
7170;BME280;3626;42.656;23.312;2023-01-10T00:15:36;93788.81;;;2.45;100.00
7170;BME280;3626;42.656;23.312;2023-01-10T00:15:42;93788.97;;;2.43;100.00
7170;BME280;3626;42.656;23.312;2023-01-10T00:15:50;93792.84;;;2.38;100.00
7170;BME280;3626;42.656;23.312;2023-01-10T00:15:56;93780.41;;;2.35;100.00
7170;BME280;3626;42.656;23.312;2023-01-10T00:16:07;93799.31;;;2.32;100.00
7170;BME280;3626;42.656;23.312;2023-01-10T00:16:13;93799.44;;;2.31;100.00
7170;BME280;3626;42.656;23.312;2023-01-10T00:16:19;93796.22;;;2.29;100.00
7170;BME280;3626;42.656;23.312;2023-01-10T00:16:25;93796.22;;;2.29;100.00
7170;BME280;3626;42.656;23.312;2023-01-10T00:16:32;93802.13;;;2.29;100.00
7170;BME280;3626;42.656;23.312;2023-01-10T00:16:38;93808.03;;;2.30;100.00
7170;BME280;3626;42.656;23.312;2023-01-10T00:16:44;93802.00;;;2.31;100.00
7170;BME280;3626;42.656;23.312;2023-01-10T00:16:49;93799.44;;;2.31;100.00
7170;BME280;3626;42.656;23.312;2023-01-10T00:16:55;93796.75;;;2.32;100.00
7170;BME280;3626;42.656;23.312;2023-01-10T00:17:02;93801.06;;;2.32;100.00
7170;BME280;3626;42.656;23.312;2023-01-10T00:17:08;93801.84;;;2.32;100.00
7170;BME280;3626;42.656;23.312;2023-01-10T00:17:13;93802.78;;;2.31;100.00
7170;BME280;3626;42.656;23.312;2023-01-10T00:17:19;93798.66;;;2.30;100.00
7170;BME280;3626;42.656;23.312;2023-01-10T00:17:26;93803.75;;;2.30;100.00
7170;BME280;3626;42.656;23.312;2023-01-10T00:17:31;93806.16;;;2.32;100.00
7170;BME280;3626;42.656;23.312;2023-01-10T00:17:37;93804.41;;;2.32;100.00
7170;BME280;3626;42.656;23.312;2023-01-10T00:17:43;93797.56;;;2.33;100.00
7170;BME280;3626;42.656;23.312;2023-01-10T00:17:50;93798.34;;;2.33;100.00
7170;BME280;3626;42.656;23.312;2023-01-10T00:17:55;93800.00;;;2.34;100.00
7170;BME280;3626;42.656;23.312;2023-01-10T00:18:01;93796.50;;;2.35;100.00
7170;BME280;3626;42.656;23.312;2023-01-10T00:18:07;93794.59;;;2.37;100.00
7170;BME280;3626;42.656;23.312;2023-01-10T00:18:13;93793.81;;;2.37;100.00
7170;BME280;3626;42.656;23.312;2023-01-10T00:18:19;93789.38;;;2.39;100.00
7170;BME280;3626;42.656;23.312;2023-01-10T00:18:24;93793.53;;;2.40;100.00
7170;BME280;3626;42.656;23.312;2023-01-10T00:18:30;93787.50;;;2.41;100.00
7170;BME280;3626;42.656;23.312;2023-01-10T00:18:36;93786.69;;;2.40;100.00
7170;BME280;3626;42.656;23.312;2023-01-10T00:18:42;93786.03;;;2.38;100.00
7170;BME280;3626;42.656;23.312;2023-01-10T00:18:48;93776.94;;;2.36;100.00
7170;BME280;3626;42.656;23.312;2023-01-10T00:18:54;93782.16;;;2.34;100.00
7170;BME280;3626;42.656;23.312;2023-01-10T00:18:59;93779.88;;;2.31;100.00
7170;BME280;3626;42.656;23.312;2023-01-10T00:19:05;93780.84;;;2.30;100.00
7170;BME280;3626;42.656;23.312;2023-01-10T00:19:12;93784.28;;;2.29;100.00
7170;BME280;3626;42.656;23.312;2023-01-10T00:19:18;93782.69;;;2.28;100.00
7170;BME280;3626;42.656;23.312;2023-01-10T00:19:24;93776.94;;;2.26;100.00
7170;BME280;3626;42.656;23.312;2023-01-10T00:19:30;93782.03;;;2.26;100.00
7170;BME280;3626;42.656;23.312;2023-01-10T00:19:36;93780.41;;;2.25;100.00
7170;BME280;3626;42.656;23.312;2023-01-10T00:19:42;93779.75;;;2.23;100.00
7170;BME280;3626;42.656;23.312;2023-01-10T00:19:48;93777.22;;;2.23;100.00
7170;BME280;3626;42.656;23.312;2023-01-10T00:19:54;93779.09;;;2.21;100.00
7170;BME280;3626;42.656;23.312;2023-01-10T00:19:59;93780.16;;;2.18;100.00
7170;BME280;3626;42.656;23.312;2023-01-10T00:20:06;93781.13;;;2.17;100.00
7170;BME280;3626;42.656;23.312;2023-01-10T00:20:12;93776.94;;;2.16;100.00
7170;BME280;3626;42.656;23.312;2023-01-10T00:20:18;93778.69;;;2.16;100.00
7170;BME280;3626;42.656;23.312;2023-01-10T00:20:24;93770.25;;;2.15;100.00
7170;BME280;3626;42.656;23.312;2023-01-10T00:20:30;93771.06;;;2.16;100.00
7170;BME280;3626;42.656;23.312;2023-01-10T00:20:36;93769.31;;;2.16;100.00
7170;BME280;3626;42.656;23.312;2023-01-10T00:20:42;93770.00;;;2.18;100.00
7170;BME280;3626;42.656;23.312;2023-01-10T00:20:49;93771.47;;;2.21;100.00
7170;BME280;3626;42.656;23.312;2023-01-10T00:20:54;93769.72;;;2.21;100.00
7170;BME280;3626;42.656;23.312;2023-01-10T00:21:03;93771.31;;;2.22;100.00
7170;BME280;3626;42.656;23.312;2023-01-10T00:21:11;93772.78;;;2.25;100.00
7170;BME280;3626;42.656;23.312;2023-01-10T00:21:18;93777.75;;;2.27;100.00
7170;BME280;3626;42.656;23.312;2023-01-10T00:21:24;93778.56;;;2.27;100.00
7170;BME280;3626;42.656;23.312;2023-01-10T00:21:32;93780.16;;;2.28;100.00
7170;BME280;3626;42.656;23.312;2023-01-10T00:21:38;93783.50;;;2.29;100.00
7170;BME280;3626;42.656;23.312;2023-01-10T00:21:44;93788.47;;;2.30;100.00
7170;BME280;3626;42.656;23.312;2023-01-10T00:21:50;93789.25;;;2.31;100.00
7170;BME280;3626;42.656;23.312;2023-01-10T00:21:56;93785.78;;;2.32;100.00
7170;BME280;3626;42.656;23.312;2023-01-10T00:22:06;93790.72;;;2.33;100.00
7170;BME280;3626;42.656;23.312;2023-01-10T00:22:18;93797.44;;;2.34;100.00
7170;BME280;3626;42.656;23.312;2023-01-10T00:22:29;93793.00;;;2.36;100.00
7170;BME280;3626;42.656;23.312;2023-01-10T00:22:36;93794.59;;;2.37;100.00
7170;BME280;3626;42.656;23.312;2023-01-10T00:22:41;93798.63;;;2.40;100.00
7170;BME280;3626;42.656;23.312;2023-01-10T00:22:48;93793.69;;;2.38;100.00
7170;BME280;3626;42.656;23.312;2023-01-10T00:22:55;93795.28;;;2.39;100.00
7170;BME280;3626;42.656;23.312;2023-01-10T00:23:00;93801.16;;;2.40;100.00
7170;BME280;3626;42.656;23.312;2023-01-10T00:23:07;93804.38;;;2.42;100.00
7170;BME280;3626;42.656;23.312;2023-01-10T00:23:13;93801.03;;;2.41;100.00
7170;BME280;3626;42.656;23.312;2023-01-10T00:23:19;93800.09;;;2.42;100.00
7170;BME280;3626;42.656;23.312;2023-01-10T00:23:27;93799.97;;;2.44;100.00
7170;BME280;3626;42.656;23.312;2023-01-10T00:23:33;93800.75;;;2.44;100.00
7170;BME280;3626;42.656;23.312;2023-01-10T00:23:43;93802.25;;;2.47;100.00
7170;BME280;3626;42.656;23.312;2023-01-10T00:23:49;93807.34;;;2.47;100.00
7170;BME280;3626;42.656;23.312;2023-01-10T00:23:55;93801.28;;;2.48;100.00
7170;BME280;3626;42.656;23.312;2023-01-10T00:24:02;93805.44;;;2.49;100.00
7170;BME280;3626;42.656;23.312;2023-01-10T00:24:18;93794.06;;;2.43;100.00
7170;BME280;3626;42.656;23.312;2023-01-10T00:24:24;93807.06;;;2.40;100.00
7170;BME280;3626;42.656;23.312;2023-01-10T00:24:30;93806.25;;;2.40;100.00
7170;BME280;3626;42.656;23.312;2023-01-10T00:24:36;93796.34;;;2.37;100.00
7170;BME280;3626;42.656;23.312;2023-01-10T00:24:43;93795.69;;;2.35;100.00
7170;BME280;3626;42.656;23.312;2023-01-10T00:24:49;93795.81;;;2.33;100.00
7170;BME280;3626;42.656;23.312;2023-01-10T00:24:54;93796.63;;;2.34;100.00
7170;BME280;3626;42.656;23.312;2023-01-10T00:25:00;93794.22;;;2.32;100.00
7170;BME280;3626;42.656;23.312;2023-01-10T00:25:06;93796.63;;;2.34;100.00
7170;BME280;3626;42.656;23.312;2023-01-10T00:25:13;93789.81;;;2.34;100.00
7170;BME280;3626;42.656;23.312;2023-01-10T00:25:19;93787.25;;;2.34;100.00
7170;BME280;3626;42.656;23.312;2023-01-10T00:25:25;93781.22;;;2.35;100.00
7170;BME280;3626;42.656;23.312;2023-01-10T00:25:31;93790.59;;;2.35;100.00
7170;BME280;3626;42.656;23.312;2023-01-10T00:25:38;93784.19;;;2.31;100.00
7170;BME280;3626;42.656;23.312;2023-01-10T00:25:46;93784.19;;;2.31;100.00
7170;BME280;3626;42.656;23.312;2023-01-10T00:25:52;93789.38;;;2.29;100.00
7170;BME280;3626;42.656;23.312;2023-01-10T00:25:57;93783.63;;;2.27;100.00
7170;BME280;3626;42.656;23.312;2023-01-10T00:26:04;93782.84;;;2.27;100.00
7170;BME280;3626;42.656;23.312;2023-01-10T00:26:10;93783.78;;;2.25;100.00
7170;BME280;3626;42.656;23.312;2023-01-10T00:26:16;93776.16;;;2.25;100.00
7170;BME280;3626;42.656;23.312;2023-01-10T00:26:21;93774.53;;;2.24;100.00
7170;BME280;3626;42.656;23.312;2023-01-10T00:26:27;93778.16;;;2.22;100.00
7170;BME280;3626;42.656;23.312;2023-01-10T00:26:33;93778.28;;;2.20;100.00
7170;BME280;3626;42.656;23.312;2023-01-10T00:26:39;93773.19;;;2.20;100.00
7170;BME280;3626;42.656;23.312;2023-01-10T00:26:46;93775.63;;;2.22;100.00
7170;BME280;3626;42.656;23.312;2023-01-10T00:26:55;93779.09;;;2.21;100.00
7170;BME280;3626;42.656;23.312;2023-01-10T00:27:01;93784.47;;;2.18;100.00
7170;BME280;3626;42.656;23.312;2023-01-10T00:27:07;93787.00;;;2.18;100.00
7170;BME280;3626;42.656;23.312;2023-01-10T00:27:17;93788.75;;;2.17;100.00
7170;BME280;3626;42.656;23.312;2023-01-10T00:27:26;93791.16;;;2.19;100.00
7170;BME280;3626;42.656;23.312;2023-01-10T00:27:33;93787.66;;;2.20;100.00
7170;BME280;3626;42.656;23.312;2023-01-10T00:27:40;93793.44;;;2.22;100.00
7170;BME280;3626;42.656;23.312;2023-01-10T00:27:47;93799.31;;;2.22;100.00
7170;BME280;3626;42.656;23.312;2023-01-10T00:27:54;93795.19;;;2.21;100.00
7170;BME280;3626;42.656;23.312;2023-01-10T00:28:06;93803.47;;;2.23;100.00
7170;BME280;3626;42.656;23.312;2023-01-10T00:28:16;93811.09;;;2.23;100.00
7170;BME280;3626;42.656;23.312;2023-01-10T00:28:25;93809.09;;;2.27;100.00
7170;BME280;3626;42.656;23.312;2023-01-10T00:28:31;93807.34;;;2.28;100.00
7170;BME280;3626;42.656;23.312;2023-01-10T00:28:40;93812.28;;;2.29;100.00
7170;BME280;3626;42.656;23.312;2023-01-10T00:28:47;93813.13;;;2.30;100.00
7170;BME280;3626;42.656;23.312;2023-01-10T00:28:54;93816.47;;;2.30;100.00
7170;BME280;3626;42.656;23.312;2023-01-10T00:28:59;93809.50;;;2.32;100.00
7170;BME280;3626;42.656;23.312;2023-01-10T00:29:05;93809.50;;;2.32;100.00
7170;BME280;3626;42.656;23.312;2023-01-10T00:29:12;93814.47;;;2.34;100.00
7170;BME280;3626;42.656;23.312;2023-01-10T00:29:19;93809.38;;;2.34;100.00
7170;BME280;3626;42.656;23.312;2023-01-10T00:29:27;93804.13;;;2.35;100.00
7170;BME280;3626;42.656;23.312;2023-01-10T00:29:33;93806.41;;;2.38;100.00
7170;BME280;3626;42.656;23.312;2023-01-10T00:29:40;93802.25;;;2.37;100.00
7170;BME280;3626;42.656;23.312;2023-01-10T00:29:45;93802.25;;;2.37;100.00
7170;BME280;3626;42.656;23.312;2023-01-10T00:29:52;93799.03;;;2.35;100.00
7170;BME280;3626;42.656;23.312;2023-01-10T00:29:58;93802.78;;;2.31;100.00
7170;BME280;3626;42.656;23.312;2023-01-10T00:30:09;93798.78;;;2.29;100.00
7170;BME280;3626;42.656;23.312;2023-01-10T00:30:18;93791.53;;;2.24;100.00
7170;BME280;3626;42.656;23.312;2023-01-10T00:30:25;93784.69;;;2.24;100.00
7170;BME280;3626;42.656;23.312;2023-01-10T00:30:30;93788.06;;;2.25;100.00
7170;BME280;3626;42.656;23.312;2023-01-10T00:30:39;93788.19;;;2.23;100.00
7170;BME280;3626;42.656;23.312;2023-01-10T00:30:48;93787.13;;;2.26;100.00
7170;BME280;3626;42.656;23.312;2023-01-10T00:30:59;93787.94;;;2.27;100.00
7170;BME280;3626;42.656;23.312;2023-01-10T00:31:05;93795.69;;;2.25;100.00
7170;BME280;3626;42.656;23.312;2023-01-10T00:31:12;93792.34;;;2.24;100.00
7170;BME280;3626;42.656;23.312;2023-01-10T00:31:20;93784.69;;;2.24;100.00
7170;BME280;3626;42.656;23.312;2023-01-10T00:31:26;93787.13;;;2.26;100.00
7170;BME280;3626;42.656;23.312;2023-01-10T00:31:32;93793.03;;;2.27;100.00
7170;BME280;3626;42.656;23.312;2023-01-10T00:31:38;93796.38;;;2.27;100.00
7170;BME280;3626;42.656;23.312;2023-01-10T00:31:44;93790.34;;;2.28;100.00
7170;BME280;3626;42.656;23.312;2023-01-10T00:31:49;93790.22;;;2.30;100.00
7170;BME280;3626;42.656;23.312;2023-01-10T00:31:56;93793.69;;;2.29;100.00
7170;BME280;3626;42.656;23.312;2023-01-10T00:32:03;93794.47;;;2.29;100.00
7170;BME280;3626;42.656;23.312;2023-01-10T00:32:08;93797.03;;;2.29;100.00
7170;BME280;3626;42.656;23.312;2023-01-10T00:32:14;93791.94;;;2.29;100.00
7170;BME280;3626;42.656;23.312;2023-01-10T00:32:20;93791.00;;;2.30;100.00
7170;BME280;3626;42.656;23.312;2023-01-10T00:32:26;93797.03;;;2.29;100.00
7170;BME280;3626;42.656;23.312;2023-01-10T00:32:32;93798.91;;;2.27;100.00
7170;BME280;3626;42.656;23.312;2023-01-10T00:32:39;93795.69;;;2.25;100.00
7170;BME280;3626;42.656;23.312;2023-01-10T00:32:45;93799.97;;;2.24;100.00
7170;BME280;3626;42.656;23.312;2023-01-10T00:32:50;93799.06;;;2.25;100.00
7170;BME280;3626;42.656;23.312;2023-01-10T00:32:56;93797.16;;;2.28;100.00
7170;BME280;3626;42.656;23.312;2023-01-10T00:33:02;93799.72;;;2.28;100.00
7170;BME280;3626;42.656;23.312;2023-01-10T00:33:09;93806.28;;;2.30;100.00
7170;BME280;3626;42.656;23.312;2023-01-10T00:33:21;93799.31;;;2.32;100.00
7170;BME280;3626;42.656;23.312;2023-01-10T00:33:29;93794.91;;;2.34;100.00
7170;BME280;3626;42.656;23.312;2023-01-10T00:33:36;93794.91;;;2.34;100.00
7170;BME280;3626;42.656;23.312;2023-01-10T00:33:42;93789.81;;;2.34;100.00
7170;BME280;3626;42.656;23.312;2023-01-10T00:33:47;93794.75;;;2.36;100.00
7170;BME280;3626;42.656;23.312;2023-01-10T00:33:53;93792.06;;;2.37;100.00
7170;BME280;3626;42.656;23.312;2023-01-10T00:33:59;93788.72;;;2.37;100.00
7170;BME280;3626;42.656;23.312;2023-01-10T00:34:05;93798.63;;;2.40;100.00
7170;BME280;3626;42.656;23.312;2023-01-10T00:34:12;93786.53;;;2.42;100.00
7170;BME280;3626;42.656;23.312;2023-01-10T00:34:18;93784.84;;;2.42;100.00
7170;BME280;3626;42.656;23.312;2023-01-10T00:34:24;93788.19;;;2.43;100.00
7170;BME280;3626;42.656;23.312;2023-01-10T00:34:31;93782.28;;;2.42;100.00
7170;BME280;3626;42.656;23.312;2023-01-10T00:34:37;93781.59;;;2.40;100.00
7170;BME280;3626;42.656;23.312;2023-01-10T00:34:43;93786.69;;;2.40;100.00
7170;BME280;3626;42.656;23.312;2023-01-10T00:34:49;93776.50;;;2.40;100.00
7170;BME280;3626;42.656;23.312;2023-01-10T00:34:54;93772.47;;;2.38;100.00
7170;BME280;3626;42.656;23.312;2023-01-10T00:35:00;93784.41;;;2.37;100.00
7170;BME280;3626;42.656;23.312;2023-01-10T00:35:10;93774.53;;;2.34;100.00
7170;BME280;3626;42.656;23.312;2023-01-10T00:35:17;93778.00;;;2.33;100.00
7170;BME280;3626;42.656;23.312;2023-01-10T00:35:26;93771.97;;;2.34;100.00
7170;BME280;3626;42.656;23.312;2023-01-10T00:35:31;93777.06;;;2.34;100.00
7170;BME280;3626;42.656;23.312;2023-01-10T00:35:37;93775.19;;;2.36;100.00
7170;BME280;3626;42.656;23.312;2023-01-10T00:35:43;93778.53;;;2.37;100.00
7170;BME280;3626;42.656;23.312;2023-01-10T00:35:51;93770.22;;;2.35;100.00
7170;BME280;3626;42.656;23.312;2023-01-10T00:35:57;93778.00;;;2.33;100.00
7170;BME280;3626;42.656;23.312;2023-01-10T00:36:05;93769.69;;;2.31;100.00
7170;BME280;3626;42.656;23.312;2023-01-10T00:36:11;93766.47;;;2.29;100.00
7170;BME280;3626;42.656;23.312;2023-01-10T00:36:17;93772.50;;;2.28;100.00
7170;BME280;3626;42.656;23.312;2023-01-10T00:36:23;93765.03;;;2.27;100.00
7170;BME280;3626;42.656;23.312;2023-01-10T00:36:29;93776.16;;;2.25;100.00
7170;BME280;3626;42.656;23.312;2023-01-10T00:36:34;93774.53;;;2.24;100.00
7170;BME280;3626;42.656;23.312;2023-01-10T00:36:40;93772.91;;;2.23;100.00